createdAt,value
2019-05-30T00:01:11.173Z,2.30
2019-05-30T00:03:38.448Z,1.97
2019-05-30T00:06:05.638Z,2.00
2019-05-30T00:08:32.623Z,3.10
2019-05-30T00:11:00.530Z,2.37
2019-05-30T00:13:27.751Z,2.30
2019-05-30T00:15:56.636Z,2.63
2019-05-30T00:18:23.992Z,2.53
2019-05-30T00:20:50.925Z,2.60
2019-05-30T00:23:18.003Z,2.07
2019-05-30T00:25:45.094Z,2.10
2019-05-30T00:28:12.209Z,2.47
2019-05-30T00:30:39.189Z,2.23
2019-05-30T00:33:07.022Z,1.90
2019-05-30T00:35:34.486Z,2.03
2019-05-30T00:38:01.966Z,3.33
2019-05-30T00:40:29.008Z,2.00
2019-05-30T00:42:55.928Z,2.10
2019-05-30T00:45:22.982Z,2.77
2019-05-30T00:47:50.259Z,1.80
2019-05-30T00:50:17.316Z,1.70
2019-05-30T00:52:44.334Z,1.67
2019-05-30T00:55:11.402Z,1.90
2019-05-30T00:57:38.263Z,1.80
2019-05-30T01:00:07.130Z,2.27
2019-05-30T01:02:34.550Z,2.37
2019-05-30T01:05:03.386Z,1.97
2019-05-30T01:07:30.502Z,2.00
2019-05-30T01:09:59.119Z,1.70
2019-05-30T01:12:26.502Z,1.73
2019-05-30T01:14:53.752Z,2.13
2019-05-30T01:17:20.777Z,1.70
2019-05-30T01:19:48.211Z,1.70
2019-05-30T01:22:15.476Z,1.70
2019-05-30T01:24:42.594Z,1.97
2019-05-30T01:27:09.811Z,1.80
2019-05-30T01:29:37.128Z,2.10
2019-05-30T01:32:24.088Z,2.30
2019-05-30T01:34:51.289Z,1.90
2019-05-30T01:37:18.810Z,1.87
2019-05-30T01:39:46.181Z,1.80
2019-05-30T01:42:13.504Z,1.80
2019-05-30T01:44:40.718Z,2.00
2019-05-30T01:47:08.392Z,2.10
2019-05-30T01:49:35.611Z,2.07
2019-05-30T01:52:03.070Z,2.17
2019-05-30T01:54:30.450Z,1.90
2019-05-30T01:56:58.440Z,1.93
2019-05-30T01:59:25.726Z,1.80
2019-05-30T02:01:53.101Z,1.97
2019-05-30T02:04:20.140Z,1.97
2019-05-30T02:06:47.255Z,2.03
2019-05-30T02:09:14.404Z,1.80
2019-05-30T02:11:41.546Z,2.00
2019-05-30T02:14:09.939Z,1.70
2019-05-30T02:16:37.147Z,1.80
2019-05-30T02:19:05.758Z,1.60
2019-05-30T02:21:33.042Z,1.83
2019-05-30T02:24:00.193Z,2.10
2019-05-30T02:26:27.302Z,1.80
2019-05-30T02:28:54.314Z,2.03
2019-05-30T02:31:37.807Z,1.70
2019-05-30T02:33:50.490Z,1.90
2019-05-30T02:36:17.569Z,1.90
2019-05-30T02:38:44.751Z,1.80
2019-05-30T02:41:12.481Z,2.20
2019-05-30T02:43:39.829Z,2.70
2019-05-30T02:46:08.109Z,7.13
2019-05-30T02:48:54.738Z,2.03
2019-05-30T02:51:05.690Z,2.57
2019-05-30T02:53:33.783Z,1.70
2019-05-30T02:56:01.430Z,1.57
2019-05-30T02:58:28.515Z,1.63
2019-05-30T03:00:55.646Z,1.73
2019-05-30T03:03:22.865Z,1.80
2019-05-30T03:05:50.199Z,2.13
2019-05-30T03:08:17.621Z,2.30
2019-05-30T03:10:44.934Z,1.90
2019-05-30T03:13:12.881Z,1.87
2019-05-30T03:15:40.604Z,1.90
2019-05-30T03:18:09.812Z,1.57
2019-05-30T03:20:37.320Z,1.70
2019-05-30T03:23:05.837Z,2.00
2019-05-30T03:25:33.827Z,1.77
2019-05-30T03:28:02.713Z,2.27
2019-05-30T03:30:30.916Z,2.13
2019-05-30T03:33:07.753Z,1.93
2019-05-30T03:35:31.376Z,1.67
2019-05-30T03:37:56.760Z,2.07
2019-05-30T03:40:25.711Z,1.77
2019-05-30T03:42:53.271Z,1.63
2019-05-30T03:45:21.413Z,1.70
2019-05-30T03:47:52.496Z,1.70
2019-05-30T03:50:23.423Z,1.50
2019-05-30T03:52:51.239Z,1.80
2019-05-30T03:55:20.048Z,1.60
2019-05-30T03:57:53.372Z,1.97
2019-05-30T04:00:31.744Z,1.97
2019-05-30T04:03:10.928Z,2.00
2019-05-30T04:05:42.123Z,2.00
2019-05-30T04:08:12.390Z,1.73
2019-05-30T04:10:41.690Z,1.80
2019-05-30T04:13:33.787Z,1.80
2019-05-30T04:16:00.786Z,1.97
2019-05-30T04:18:27.877Z,1.90
2019-05-30T04:20:54.884Z,1.90
2019-05-30T04:23:21.968Z,2.30
2019-05-30T04:25:48.999Z,2.53
2019-05-30T04:28:16.364Z,2.40
2019-05-30T04:30:45.049Z,2.20
2019-05-30T04:33:19.254Z,2.37
2019-05-30T04:35:41.477Z,3.33
2019-05-30T04:38:08.731Z,2.80
2019-05-30T04:40:35.822Z,2.67
2019-05-30T04:43:03.013Z,1.67
2019-05-30T04:45:30.320Z,2.13
2019-05-30T04:47:57.316Z,2.10
2019-05-30T04:50:24.459Z,1.60
2019-05-30T04:52:51.497Z,1.80
2019-05-30T04:55:21.088Z,1.90
2019-05-30T04:57:47.503Z,2.00
2019-05-30T05:00:17.011Z,1.80
2019-05-30T05:02:44.478Z,2.00
2019-05-30T05:05:13.726Z,2.00
2019-05-30T05:07:42.174Z,1.97
2019-05-30T05:10:12.022Z,2.17
2019-05-30T05:12:39.220Z,1.70
2019-05-30T05:15:07.585Z,1.70
2019-05-30T05:17:34.837Z,2.27
2019-05-30T05:20:02.256Z,1.90
2019-05-30T05:22:30.702Z,1.77
2019-05-30T05:24:57.707Z,1.50
2019-05-30T05:27:25.239Z,1.87
2019-05-30T05:29:52.217Z,1.80
2019-05-30T05:32:20.454Z,1.77
2019-05-30T05:34:47.645Z,1.90
2019-05-30T05:37:15.015Z,2.07
2019-05-30T05:39:42.022Z,1.70
2019-05-30T05:42:09.146Z,1.70
2019-05-30T05:44:36.631Z,1.63
2019-05-30T05:47:03.730Z,1.50
2019-05-30T05:49:30.759Z,1.70
2019-05-30T05:51:57.872Z,1.50
2019-05-30T05:54:25.097Z,1.70
2019-05-30T05:56:52.222Z,1.87
2019-05-30T05:59:19.194Z,1.90
2019-05-30T06:01:46.323Z,1.90
2019-05-30T06:04:13.891Z,2.07
2019-05-30T06:06:41.439Z,1.87
2019-05-30T06:09:08.675Z,1.73
2019-05-30T06:11:36.050Z,1.90
2019-05-30T06:14:03.145Z,2.17
2019-05-30T06:16:30.413Z,2.50
2019-05-30T06:18:57.338Z,2.60
2019-05-30T06:21:25.396Z,2.60
2019-05-30T06:57:58.851Z,2.00
2019-05-30T07:00:28.005Z,2.27
2019-05-30T07:02:55.745Z,1.90
2019-05-30T07:05:30.575Z,1.90
2019-05-30T07:07:58.147Z,1.83
2019-05-30T07:10:25.305Z,1.77
2019-05-30T07:12:52.360Z,1.60
2019-05-30T07:18:08.110Z,1.70
2019-05-30T07:24:11.119Z,1.97
2019-05-30T07:26:53.033Z,2.27
2019-05-30T07:29:34.143Z,1.87
2019-05-30T07:32:01.639Z,2.20
2019-05-30T07:37:18.834Z,1.80
2019-05-30T07:39:46.300Z,1.70
2019-05-30T07:42:14.099Z,1.80
2019-05-30T07:44:42.292Z,1.67
2019-05-30T07:47:49.706Z,1.67
2019-05-30T07:50:56.859Z,2.27
2019-05-30T08:00:22.119Z,1.90
2019-05-30T08:02:51.230Z,1.63
2019-05-30T08:05:24.190Z,1.90
2019-05-30T08:08:18.114Z,1.80
2019-05-30T08:10:48.956Z,2.53
2019-05-30T08:13:16.845Z,2.00
2019-05-30T08:15:44.727Z,2.10
2019-05-30T08:18:13.247Z,1.87
2019-05-30T08:20:41.859Z,1.80
2019-05-30T08:23:09.926Z,2.20
2019-05-30T08:25:38.401Z,2.00
2019-05-30T08:28:05.916Z,2.10
2019-05-30T08:30:38.791Z,1.90
2019-05-30T08:33:33.580Z,2.13
2019-05-30T08:36:05.646Z,1.77
2019-05-30T08:45:43.282Z,2.50
2019-05-30T08:45:52.912Z,2.00
2019-05-30T08:48:43.304Z,2.63
2019-05-30T08:51:13.126Z,2.03
2019-05-30T08:53:54.856Z,2.00
2019-05-30T08:56:54.537Z,1.90
2019-05-30T08:59:23.647Z,1.90
2019-05-30T09:01:53.492Z,1.60
2019-05-30T09:04:22.435Z,1.80
2019-05-30T09:06:50.408Z,2.40
2019-05-30T09:09:17.776Z,2.67
2019-05-30T09:11:58.774Z,1.53
2019-05-30T09:14:27.076Z,1.77
2019-05-30T09:31:22.100Z,1.70
2019-05-30T09:33:57.501Z,1.83
2019-05-30T09:36:30.416Z,1.80
2019-05-30T09:39:00.740Z,1.80
2019-05-30T09:41:28.247Z,1.50
2019-05-30T09:43:55.677Z,1.70
2019-05-30T09:46:23.156Z,1.90
2019-05-30T09:48:51.774Z,1.90
2019-05-30T09:51:21.421Z,1.70
2019-05-30T09:53:48.836Z,1.90
2019-05-30T09:56:16.187Z,1.60
2019-05-30T09:58:46.001Z,1.70
2019-05-30T10:01:13.511Z,1.93
2019-05-30T10:03:41.965Z,1.57
2019-05-30T10:06:10.312Z,2.40
2019-05-30T10:08:37.512Z,2.20
2019-05-30T10:11:04.939Z,1.57
2019-05-30T10:13:32.422Z,1.70
2019-05-30T10:15:59.972Z,2.57
2019-05-30T10:18:27.089Z,1.87
2019-05-30T10:20:54.314Z,1.40
2019-05-30T10:23:21.440Z,1.57
2019-05-30T10:25:49.517Z,2.00
2019-05-30T10:28:16.931Z,1.60
2019-05-30T10:30:50.311Z,1.80
2019-05-30T10:33:14.688Z,1.90
2019-05-30T10:35:42.128Z,1.80
2019-05-30T10:38:09.488Z,1.80
2019-05-30T10:40:36.621Z,1.87
2019-05-30T10:43:04.164Z,1.73
2019-05-30T10:45:31.526Z,1.80
2019-05-30T10:47:58.671Z,1.93
2019-05-30T10:50:25.977Z,1.70
2019-05-30T10:52:53.588Z,2.00
2019-05-30T10:55:21.920Z,1.87
2019-05-30T10:57:50.038Z,2.20
2019-05-30T11:00:18.100Z,1.70
2019-05-30T11:02:47.363Z,1.70
2019-05-30T11:05:17.296Z,2.00
2019-05-30T11:08:03.966Z,2.00
2019-05-30T11:10:42.953Z,2.27
2019-05-30T11:13:12.436Z,1.97
2019-05-30T11:15:41.385Z,2.00
2019-05-30T11:18:09.849Z,1.97
2019-05-30T11:20:37.553Z,2.00
2019-05-30T11:23:05.195Z,2.40
2019-05-30T11:25:35.481Z,2.00
2019-05-30T11:28:03.289Z,2.00
2019-05-30T11:30:30.956Z,2.00
2019-05-30T11:32:59.405Z,2.20
2019-05-30T11:35:26.888Z,2.27
2019-05-30T11:37:55.210Z,2.33
2019-05-30T11:40:22.570Z,1.97
2019-05-30T11:42:49.776Z,2.20
2019-05-30T11:45:18.055Z,2.20
2019-05-30T11:47:45.271Z,2.13
2019-05-30T11:50:13.297Z,2.30
2019-05-30T11:52:40.584Z,2.10
2019-05-30T11:55:08.102Z,2.80
2019-05-30T11:57:35.228Z,2.87
2019-05-30T12:00:04.887Z,2.20
2019-05-30T12:02:32.085Z,2.30
2019-05-30T12:04:59.406Z,2.50
2019-05-30T12:07:35.757Z,2.10
2019-05-30T12:09:55.551Z,2.50
2019-05-30T12:12:23.088Z,2.40
2019-05-30T12:14:51.241Z,2.40
2019-05-30T12:17:18.669Z,2.53
2019-05-30T12:19:45.885Z,2.70
2019-05-30T12:22:13.047Z,2.40
2019-05-30T12:24:40.118Z,2.43
2019-05-30T12:27:07.483Z,2.37
2019-05-30T12:29:34.751Z,2.60
2019-05-30T12:32:03.472Z,2.70
2019-05-30T12:34:30.744Z,2.27
2019-05-30T12:36:58.490Z,2.70
2019-05-30T12:39:25.678Z,2.10
2019-05-30T12:41:52.963Z,2.77
2019-05-30T12:44:21.140Z,2.60
2019-05-30T12:46:48.407Z,2.50
2019-05-30T12:49:15.602Z,2.73
2019-05-30T12:51:42.977Z,3.30
2019-05-30T12:54:10.047Z,2.70
2019-05-30T12:56:37.415Z,2.80
2019-05-30T12:59:04.773Z,2.60
2019-05-30T13:01:31.987Z,2.53
2019-05-30T13:03:59.194Z,2.40
2019-05-30T13:06:26.339Z,3.17
2019-05-30T13:08:54.919Z,2.67
2019-05-30T13:11:22.193Z,2.83
2019-05-30T13:13:49.448Z,3.00
2019-05-30T13:16:16.707Z,3.33
2019-05-30T13:18:43.912Z,3.00
2019-05-30T13:21:11.092Z,3.23
2019-05-30T13:23:38.258Z,2.87
2019-05-30T13:26:05.938Z,3.33
2019-05-30T13:28:33.326Z,3.30
2019-05-30T13:31:00.649Z,3.80
2019-05-30T13:33:27.989Z,3.20
2019-05-30T13:35:55.155Z,3.37
2019-05-30T13:38:26.589Z,5.73
2019-05-30T13:40:51.235Z,3.53
2019-05-30T13:43:18.604Z,2.90
2019-05-30T13:45:45.652Z,3.40
2019-05-30T13:48:13.045Z,3.13
2019-05-30T13:50:40.279Z,3.10
2019-05-30T13:53:09.212Z,3.40
2019-05-30T13:55:36.596Z,2.80
2019-05-30T13:58:03.881Z,3.17
2019-05-30T14:00:31.150Z,2.67
2019-05-30T14:02:58.387Z,2.60
2019-05-30T14:05:25.676Z,3.13
2019-05-30T14:07:52.943Z,2.73
2019-05-30T14:10:20.385Z,3.03
2019-05-30T14:12:47.276Z,2.97
2019-05-30T14:15:15.834Z,2.70
2019-05-30T14:17:42.834Z,2.70
2019-05-30T14:20:11.413Z,3.23
2019-05-30T14:22:38.479Z,3.20
2019-05-30T14:25:05.990Z,2.70
2019-05-30T14:27:32.846Z,2.43
2019-05-30T14:29:59.802Z,3.40
2019-05-30T14:32:26.685Z,3.33
2019-05-30T14:34:53.587Z,2.70
2019-05-30T14:37:20.458Z,2.70
2019-05-30T14:39:47.315Z,2.53
2019-05-30T14:42:14.513Z,4.23
2019-05-30T14:44:41.352Z,2.90
2019-05-30T14:47:08.505Z,2.87
2019-05-30T14:49:35.358Z,2.80
2019-05-30T14:52:02.829Z,2.77
2019-05-30T14:54:29.734Z,2.93
2019-05-30T14:56:56.577Z,2.60
2019-05-30T14:59:23.614Z,3.13
2019-05-30T15:01:50.503Z,2.97
2019-05-30T15:04:17.578Z,4.13
2019-05-30T15:06:44.672Z,4.33
2019-05-30T15:09:24.791Z,3.23
2019-05-30T15:11:40.677Z,3.00
2019-05-30T15:14:08.705Z,2.60
2019-05-30T15:16:35.726Z,2.53
2019-05-30T15:19:02.779Z,2.70
2019-05-30T15:21:29.614Z,3.60
2019-05-30T15:23:56.875Z,2.70
2019-05-30T15:26:23.766Z,2.80
2019-05-30T15:28:50.623Z,2.90
2019-05-30T15:31:17.534Z,2.90
2019-05-30T15:33:44.403Z,2.90
2019-05-30T15:36:11.325Z,2.60
2019-05-30T15:38:39.278Z,2.40
2019-05-30T15:41:06.978Z,2.87
2019-05-30T15:43:34.009Z,3.37
2019-05-30T15:46:00.886Z,3.63
2019-05-30T15:48:27.853Z,3.00
2019-05-30T15:50:54.717Z,2.70
2019-05-30T15:53:21.598Z,3.00
2019-05-30T15:55:48.451Z,2.70
2019-05-30T15:58:15.721Z,2.90
2019-05-30T16:00:42.674Z,2.70
2019-05-30T16:03:10.443Z,2.40
2019-05-30T16:05:37.610Z,3.03
2019-05-30T16:08:04.561Z,2.87
2019-05-30T16:10:31.806Z,2.40
2019-05-30T16:12:58.685Z,4.97
2019-05-30T16:15:25.651Z,4.00
2019-05-30T16:17:52.525Z,4.30
2019-05-30T16:20:20.562Z,2.80
2019-05-30T16:22:47.528Z,2.43
2019-05-30T16:25:15.629Z,2.63
2019-05-30T16:27:42.598Z,2.40
2019-05-30T16:30:12.488Z,2.40
2019-05-30T16:32:41.070Z,2.57
2019-05-30T16:35:08.231Z,2.20
2019-05-30T16:37:35.527Z,2.53
2019-05-30T16:40:06.292Z,2.20
2019-05-30T16:42:31.934Z,2.10
2019-05-30T16:44:58.822Z,2.60
2019-05-30T16:47:26.656Z,2.53
2019-05-30T16:49:53.657Z,2.20
2019-05-30T16:52:21.000Z,2.13
2019-05-30T16:54:47.950Z,4.37
2019-05-30T16:57:14.919Z,3.00
2019-05-30T16:59:41.806Z,2.20
2019-05-30T17:02:08.646Z,2.20
2019-05-30T17:04:35.519Z,2.40
2019-05-30T17:07:02.450Z,2.80
2019-05-30T17:09:29.322Z,2.57
2019-05-30T17:11:56.593Z,2.47
2019-05-30T17:14:24.015Z,1.90
2019-05-30T17:16:51.327Z,1.93
2019-05-30T17:19:18.309Z,1.90
2019-05-30T17:21:45.227Z,2.10
2019-05-30T17:24:12.093Z,1.90
2019-05-30T17:26:38.956Z,1.97
2019-05-30T17:29:05.821Z,1.80
2019-05-30T17:31:32.678Z,1.90
2019-05-30T17:33:59.890Z,2.67
2019-05-30T17:36:26.842Z,2.00
2019-05-30T17:38:53.725Z,1.97
2019-05-30T17:41:20.835Z,1.87
2019-05-30T17:43:47.720Z,1.80
2019-05-30T17:46:14.538Z,1.90
2019-05-30T17:48:41.486Z,1.90
2019-05-30T17:51:08.365Z,2.73
2019-05-30T17:53:35.642Z,2.07
2019-05-30T17:56:02.600Z,2.17
2019-05-30T17:58:30.230Z,1.90
2019-05-30T18:00:57.424Z,2.10
2019-05-30T18:03:24.487Z,1.93
2019-05-30T18:05:51.333Z,2.50
2019-05-30T18:08:18.286Z,2.00
2019-05-30T18:10:53.425Z,2.13
2019-05-30T18:13:13.916Z,4.50
2019-05-30T18:15:42.053Z,2.00
2019-05-30T18:18:08.909Z,2.90
2019-05-30T18:20:47.674Z,2.20
2019-05-30T18:23:04.618Z,3.87
2019-05-30T18:25:31.816Z,2.00
2019-05-30T18:27:58.872Z,1.63
2019-05-30T18:30:38.374Z,2.00
2019-05-30T18:33:05.267Z,1.40
2019-05-30T18:35:32.553Z,2.00
2019-05-30T18:38:01.850Z,1.73
2019-05-30T18:40:30.899Z,1.60
2019-05-30T18:42:59.062Z,1.90
2019-05-30T18:45:35.058Z,1.57
2019-05-30T18:48:02.018Z,1.57
2019-05-30T18:50:29.347Z,1.70
2019-05-30T18:52:56.410Z,1.70
2019-05-30T18:55:24.527Z,1.50
2019-05-30T18:57:51.999Z,1.60
2019-05-30T19:00:19.203Z,1.67
2019-05-30T19:02:46.159Z,1.80
2019-05-30T19:05:13.353Z,1.70
2019-05-30T19:07:40.314Z,1.90
2019-05-30T19:10:07.626Z,1.77
2019-05-30T19:12:34.693Z,1.50
2019-05-30T19:15:01.992Z,1.80
2019-05-30T19:17:30.004Z,1.73
2019-05-30T19:19:56.877Z,1.70
2019-05-30T19:22:25.942Z,2.07
2019-05-30T19:24:53.150Z,2.00
2019-05-30T19:27:20.028Z,1.70
2019-05-30T19:29:46.917Z,1.70
2019-05-30T19:32:13.770Z,1.77
2019-05-30T19:34:40.638Z,1.80
2019-05-30T19:37:07.492Z,1.80
2019-05-30T19:39:35.623Z,1.60
2019-05-30T19:42:02.753Z,1.97
2019-05-30T19:44:29.991Z,1.60
2019-05-30T19:46:56.870Z,1.90
2019-05-30T19:49:23.789Z,1.77
2019-05-30T19:51:51.163Z,2.10
2019-05-30T19:54:18.057Z,1.83
2019-05-30T19:56:44.913Z,1.73
2019-05-30T19:59:11.881Z,1.43
2019-05-30T20:01:40.068Z,1.50
2019-05-30T20:04:07.031Z,1.80
2019-05-30T20:06:34.597Z,1.77
2019-05-30T20:09:04.842Z,1.70
2019-05-30T20:11:33.241Z,1.60
2019-05-30T20:14:00.498Z,1.43
2019-05-30T20:16:27.989Z,1.60
2019-05-30T20:18:55.204Z,1.73
2019-05-30T20:21:22.345Z,1.87
2019-05-30T20:23:55.456Z,1.80
2019-05-30T20:26:18.410Z,1.37
2019-05-30T20:28:45.380Z,1.97
2019-05-30T20:31:12.951Z,1.73
2019-05-30T20:33:40.590Z,1.40
2019-05-30T20:36:09.158Z,1.60
2019-05-30T20:38:36.558Z,1.70
2019-05-30T20:41:03.900Z,1.50
2019-05-30T20:43:33.171Z,1.47
2019-05-30T20:46:00.028Z,1.70
2019-05-30T20:48:27.179Z,1.50
2019-05-30T20:50:54.387Z,1.60
2019-05-30T20:53:21.529Z,1.80
2019-05-30T20:55:48.650Z,1.70
2019-05-30T20:58:15.985Z,1.50
2019-05-30T21:00:43.837Z,1.40
2019-05-30T21:03:11.197Z,1.67
2019-05-30T21:05:39.856Z,1.63
2019-05-30T21:08:07.159Z,1.60
2019-05-30T21:10:35.384Z,2.17
2019-05-30T21:13:03.596Z,1.50
2019-05-30T21:15:32.962Z,1.30
2019-05-30T21:18:00.691Z,1.63
2019-05-30T21:20:27.972Z,1.50
2019-05-30T21:22:55.027Z,1.30
2019-05-30T21:25:22.242Z,1.77
2019-05-30T21:27:49.515Z,1.47
2019-05-30T21:30:17.246Z,1.40
2019-05-30T21:32:46.252Z,1.80
2019-05-30T21:35:14.322Z,1.67
2019-05-30T21:37:41.857Z,1.47
2019-05-30T21:40:09.478Z,1.30
2019-05-30T21:42:51.481Z,1.40
2019-05-30T21:45:06.447Z,1.33
2019-05-30T21:47:33.583Z,1.60
2019-05-30T21:50:00.793Z,1.30
2019-05-30T21:52:27.882Z,1.40
2019-05-30T21:54:54.953Z,1.37
2019-05-30T21:57:22.138Z,1.60
2019-05-30T21:59:50.688Z,1.30
2019-05-30T22:02:18.091Z,1.40
2019-05-30T22:04:46.485Z,1.03
2019-05-30T22:07:14.061Z,1.30
2019-05-30T22:09:41.247Z,1.17
2019-05-30T22:12:08.473Z,1.43
2019-05-30T22:14:35.698Z,1.30
2019-05-30T22:17:02.920Z,1.40
2019-05-30T22:19:30.338Z,2.07
2019-05-30T22:21:57.581Z,1.50
2019-05-30T22:24:24.829Z,1.53
2019-05-30T22:26:52.615Z,2.37
2019-05-30T22:29:20.123Z,1.30
2019-05-30T22:31:48.506Z,1.70
2019-05-30T22:34:15.666Z,1.40
2019-05-30T22:36:42.853Z,1.83
2019-05-30T22:39:10.163Z,2.17
2019-05-30T22:41:37.272Z,1.60
2019-05-30T22:44:05.459Z,1.50
2019-05-30T22:46:32.488Z,1.50
2019-05-30T22:48:59.631Z,1.20
2019-05-30T22:51:27.626Z,1.43
2019-05-30T22:53:55.067Z,1.50
2019-05-30T22:56:22.510Z,1.20
2019-05-30T22:58:50.170Z,1.30
2019-05-30T23:01:17.719Z,1.10
2019-05-30T23:03:45.074Z,1.40
2019-05-30T23:06:12.423Z,1.50
2019-05-30T23:08:39.570Z,1.40
2019-05-30T23:11:06.659Z,1.50
2019-05-30T23:13:40.455Z,1.47
2019-05-30T23:16:03.040Z,1.47
2019-05-30T23:18:30.186Z,1.50
2019-05-30T23:20:57.243Z,1.30
2019-05-30T23:23:24.313Z,1.60
2019-05-30T23:25:51.614Z,1.30
2019-05-30T23:28:18.639Z,1.20
2019-05-30T23:30:45.803Z,1.73
2019-05-30T23:33:12.839Z,2.07
2019-05-30T23:35:39.888Z,1.60
2019-05-30T23:38:06.925Z,1.53
2019-05-30T23:40:34.171Z,1.40
2019-05-30T23:43:01.720Z,1.37
2019-05-30T23:45:29.039Z,1.50
2019-05-30T23:47:56.061Z,1.47
2019-05-30T23:50:23.252Z,1.50
2019-05-30T23:52:50.475Z,1.47
2019-05-30T23:55:18.231Z,1.80
2019-05-30T23:57:45.414Z,1.90
